createdAt,value
2022-10-17T00:00:48.984Z,7.38
2022-10-17T00:03:16.253Z,7.28
2022-10-17T00:05:44.823Z,7.85
2022-10-17T00:08:12.855Z,8.25
2022-10-17T00:10:40.558Z,7.30
2022-10-17T00:13:09.944Z,8.48
2022-10-17T00:15:37.248Z,8.20
2022-10-17T00:18:04.444Z,8.63
2022-10-17T00:20:32.920Z,8.45
2022-10-17T00:23:00.615Z,8.50
2022-10-17T00:25:27.797Z,8.63
2022-10-17T00:27:55.220Z,8.75
2022-10-17T00:30:22.423Z,8.35
2022-10-17T00:32:50.874Z,8.65
2022-10-17T00:35:18.385Z,8.80
2022-10-17T00:37:46.471Z,8.73
2022-10-17T00:40:14.767Z,8.35
2022-10-17T00:42:41.835Z,8.63
2022-10-17T00:45:21.115Z,9.10
2022-10-17T00:47:52.151Z,9.27
2022-10-17T00:50:20.356Z,9.07
2022-10-17T00:52:47.896Z,9.20
2022-10-17T00:55:26.264Z,9.20
2022-10-17T00:57:53.689Z,9.90
2022-10-17T01:00:20.876Z,9.27
2022-10-17T01:02:48.777Z,9.65
2022-10-17T01:05:16.480Z,9.10
2022-10-17T01:07:44.819Z,9.15
2022-10-17T01:10:13.624Z,10.10
2022-10-17T01:12:47.008Z,9.60
2022-10-17T01:15:38.008Z,9.65
2022-10-17T01:18:14.377Z,9.13
2022-10-17T01:20:52.898Z,11.18
2022-10-17T01:23:29.386Z,9.68
2022-10-17T01:26:03.106Z,9.82
2022-10-17T01:28:49.399Z,9.13
2022-10-17T01:31:20.694Z,9.05
2022-10-17T01:34:03.480Z,10.00
2022-10-17T01:36:49.661Z,9.77
2022-10-17T01:39:21.729Z,9.73
2022-10-17T01:42:00.606Z,9.45
2022-10-17T01:44:33.495Z,9.88
2022-10-17T01:47:11.748Z,9.48
2022-10-17T01:49:40.969Z,10.00
2022-10-17T01:52:13.666Z,9.27
2022-10-17T01:54:43.409Z,10.07
2022-10-17T01:57:14.475Z,9.60
2022-10-17T01:59:43.100Z,9.77
2022-10-17T02:02:10.745Z,9.90
2022-10-17T02:04:38.207Z,9.98
2022-10-17T02:07:09.529Z,10.25
2022-10-17T02:09:36.630Z,10.30
2022-10-17T02:12:11.077Z,10.73
2022-10-17T02:14:56.907Z,8.85
2022-10-17T02:17:32.014Z,11.50
2022-10-17T02:20:03.420Z,12.32
2022-10-17T02:22:41.612Z,11.48
2022-10-17T02:25:26.986Z,11.90
2022-10-17T02:28:00.025Z,11.35
2022-10-17T02:30:27.223Z,10.93
2022-10-17T02:33:08.273Z,10.75
2022-10-17T02:35:37.569Z,11.93
2022-10-17T02:38:09.156Z,10.48
2022-10-17T02:40:37.803Z,11.45
2022-10-17T02:43:05.179Z,10.77
2022-10-17T02:45:36.027Z,11.05
2022-10-17T02:48:04.726Z,10.43
2022-10-17T02:50:54.940Z,10.73
2022-10-17T02:53:38.696Z,10.65
2022-10-17T02:56:09.590Z,9.88
2022-10-17T02:58:37.149Z,9.98
2022-10-17T03:01:05.507Z,9.50
2022-10-17T03:03:33.910Z,8.85
2022-10-17T03:06:01.106Z,9.13
2022-10-17T03:08:28.378Z,8.73
2022-10-17T03:10:55.553Z,8.85
2022-10-17T03:13:22.706Z,9.10
2022-10-17T03:15:50.085Z,8.48
2022-10-17T03:18:17.482Z,8.88
2022-10-17T03:20:44.771Z,8.70
2022-10-17T03:23:11.909Z,8.18
2022-10-17T03:25:39.268Z,8.55
2022-10-17T03:28:06.536Z,8.20
2022-10-17T03:30:34.128Z,7.80
2022-10-17T03:33:06.547Z,8.15
2022-10-17T03:35:33.876Z,7.60
2022-10-17T03:38:04.272Z,7.80
2022-10-17T03:40:31.453Z,8.40
2022-10-17T03:42:58.668Z,8.13
2022-10-17T03:45:25.794Z,7.60
2022-10-17T03:47:54.090Z,8.50
2022-10-17T03:50:21.430Z,8.85
2022-10-17T03:52:49.324Z,8.75
2022-10-17T03:55:16.595Z,7.63
2022-10-17T03:57:45.587Z,8.93
2022-10-17T04:00:14.455Z,8.35
2022-10-17T04:02:41.694Z,9.80
2022-10-17T04:05:09.100Z,8.75
2022-10-17T04:07:37.669Z,9.13
2022-10-17T04:10:05.449Z,9.63
2022-10-17T04:12:32.697Z,9.60
2022-10-17T04:15:00.007Z,9.75
2022-10-17T04:17:28.160Z,9.55
2022-10-17T04:19:55.286Z,10.13
2022-10-17T04:22:22.675Z,9.27
2022-10-17T04:24:49.750Z,9.82
2022-10-17T04:27:17.131Z,8.60
2022-10-17T04:29:44.474Z,8.90
2022-10-17T04:32:13.568Z,9.32
2022-10-17T04:34:40.672Z,8.43
2022-10-17T04:37:07.914Z,9.10
2022-10-17T04:39:35.048Z,8.38
2022-10-17T04:42:02.303Z,8.85
2022-10-17T04:44:30.997Z,8.32
2022-10-17T04:47:04.687Z,7.57
2022-10-17T04:49:31.969Z,8.00
2022-10-17T04:52:01.509Z,8.13
2022-10-17T04:54:28.730Z,8.95
2022-10-17T04:56:57.897Z,7.43
2022-10-17T04:59:25.053Z,7.85
2022-10-17T05:01:54.182Z,7.47
2022-10-17T05:04:25.359Z,7.55
2022-10-17T05:06:52.598Z,7.13
2022-10-17T05:09:19.934Z,7.72
2022-10-17T05:11:47.331Z,7.55
2022-10-17T05:14:14.658Z,6.90
2022-10-17T05:16:41.811Z,7.50
2022-10-17T05:19:09.495Z,7.50
2022-10-17T05:21:37.426Z,6.95
2022-10-17T05:24:09.488Z,7.03
2022-10-17T05:26:36.714Z,6.95
2022-10-17T05:29:05.334Z,7.15
2022-10-17T05:31:32.806Z,7.00
2022-10-17T05:34:03.974Z,6.97
2022-10-17T05:36:32.363Z,6.88
2022-10-17T05:38:59.630Z,6.82
2022-10-17T05:41:27.078Z,8.02
2022-10-17T05:43:54.562Z,7.32
2022-10-17T05:46:21.793Z,7.07
2022-10-17T05:48:49.005Z,7.07
2022-10-17T05:51:16.107Z,6.32
2022-10-17T05:53:43.430Z,6.40
2022-10-17T05:56:12.474Z,7.05
2022-10-17T05:58:55.076Z,6.43
2022-10-17T06:01:25.511Z,6.22
2022-10-17T06:03:52.774Z,6.47
2022-10-17T06:06:25.966Z,6.40
2022-10-17T06:08:53.178Z,6.65
2022-10-17T06:11:20.431Z,6.45
2022-10-17T06:13:47.806Z,6.82
2022-10-17T06:16:15.126Z,6.63
2022-10-17T06:18:42.236Z,7.05
2022-10-17T06:21:10.780Z,6.40
2022-10-17T06:23:38.132Z,6.88
2022-10-17T06:26:06.383Z,6.85
2022-10-17T06:28:34.121Z,7.18
2022-10-17T06:31:04.627Z,6.80
2022-10-17T06:33:31.929Z,7.30
2022-10-17T06:35:59.201Z,6.97
2022-10-17T06:38:26.615Z,6.82
2022-10-17T06:40:54.329Z,6.90
2022-10-17T06:43:26.919Z,7.03
2022-10-17T06:45:55.147Z,7.05
2022-10-17T06:48:22.474Z,7.00
2022-10-17T06:50:49.808Z,6.60
2022-10-17T06:53:17.184Z,6.72
2022-10-17T06:55:44.551Z,7.20
2022-10-17T06:58:11.870Z,7.50
2022-10-17T07:00:39.084Z,7.10
2022-10-17T07:03:06.319Z,7.90
2022-10-17T07:05:33.695Z,7.07
2022-10-17T07:08:01.061Z,7.43
2022-10-17T07:10:28.473Z,7.70
2022-10-17T07:12:55.777Z,7.20
2022-10-17T07:15:22.854Z,6.97
2022-10-17T07:17:52.042Z,7.93
2022-10-17T07:20:20.423Z,7.75
2022-10-17T07:22:47.505Z,8.68
2022-10-17T07:25:14.628Z,7.80
2022-10-17T07:27:42.049Z,7.95
2022-10-17T07:30:09.649Z,8.68
2022-10-17T07:32:36.862Z,7.07
2022-10-17T07:35:05.166Z,8.38
2022-10-17T07:37:32.827Z,9.45
2022-10-17T07:40:00.247Z,9.32
2022-10-17T07:42:28.629Z,8.95
2022-10-17T07:44:56.235Z,8.63
2022-10-17T07:47:23.466Z,9.95
2022-10-17T07:49:50.945Z,8.57
2022-10-17T07:52:18.442Z,10.85
2022-10-17T07:54:45.875Z,7.80
2022-10-17T07:57:13.017Z,9.48
2022-10-17T07:59:40.237Z,9.30
2022-10-17T08:02:08.208Z,9.60
2022-10-17T08:04:39.191Z,8.63
2022-10-17T08:07:18.571Z,9.23
2022-10-17T08:09:51.162Z,9.10
2022-10-17T08:12:18.965Z,9.48
2022-10-17T08:14:48.416Z,9.75
2022-10-17T08:17:15.779Z,9.55
2022-10-17T08:19:42.917Z,9.90
2022-10-17T08:22:10.197Z,9.52
2022-10-17T08:24:38.456Z,10.07
2022-10-17T08:27:11.416Z,8.73
2022-10-17T08:29:39.436Z,9.20
2022-10-17T08:32:10.184Z,9.27
2022-10-17T08:34:37.721Z,8.98
2022-10-17T08:37:04.919Z,9.20
2022-10-17T08:39:33.342Z,9.35
2022-10-17T08:42:06.616Z,10.07
2022-10-17T08:44:33.837Z,8.75
2022-10-17T08:47:03.831Z,8.55
2022-10-17T08:49:47.035Z,8.45
2022-10-17T08:52:30.795Z,8.80
2022-10-17T08:54:58.039Z,7.70
2022-10-17T08:57:26.433Z,8.75
2022-10-17T08:59:54.722Z,8.98
2022-10-17T09:02:22.994Z,10.10
2022-10-17T09:05:11.132Z,7.10
2022-10-17T09:07:42.563Z,8.57
2022-10-17T09:10:17.906Z,8.52
2022-10-17T09:13:06.907Z,8.02
2022-10-17T09:15:46.320Z,10.25
2022-10-17T09:18:23.190Z,11.65
2022-10-17T09:20:52.679Z,9.93
2022-10-17T09:23:24.678Z,12.60
2022-10-17T09:25:54.458Z,13.68
2022-10-17T09:28:35.594Z,11.02
2022-10-17T09:33:55.074Z,11.80
2022-10-17T09:36:35.529Z,14.45
2022-10-17T09:39:33.049Z,9.52
2022-10-17T09:42:01.402Z,10.30
2022-10-17T09:44:33.899Z,10.63
2022-10-17T09:47:41.220Z,10.32
2022-10-17T09:50:32.128Z,9.68
2022-10-17T09:53:08.551Z,9.90
2022-10-17T09:55:40.938Z,9.98
2022-10-17T09:58:09.451Z,10.55
2022-10-17T10:00:38.527Z,10.85
2022-10-17T10:03:10.499Z,11.50
2022-10-17T10:05:37.795Z,11.48
2022-10-17T10:08:07.837Z,11.80
2022-10-17T10:10:36.226Z,10.60
2022-10-17T10:13:06.509Z,13.50
2022-10-17T10:15:46.904Z,11.55
2022-10-17T10:18:26.633Z,12.37
2022-10-17T10:21:06.530Z,11.68
2022-10-17T10:23:34.398Z,11.93
2022-10-17T10:26:21.032Z,11.48
2022-10-17T10:29:02.599Z,12.32
2022-10-17T10:31:32.165Z,12.40
2022-10-17T10:34:00.386Z,12.07
2022-10-17T10:36:42.690Z,12.23
2022-10-17T10:39:16.936Z,7.63
2022-10-17T10:41:48.767Z,8.98
2022-10-17T10:44:25.764Z,8.75
2022-10-17T10:47:10.010Z,8.68
2022-10-17T10:49:39.259Z,9.57
2022-10-17T10:52:07.369Z,8.32
2022-10-17T10:57:08.550Z,8.35
2022-10-17T10:59:35.685Z,11.32
2022-10-17T11:02:22.768Z,10.00
2022-10-17T11:05:01.197Z,11.23
2022-10-17T11:07:33.580Z,9.20
2022-10-17T11:10:07.118Z,9.77
2022-10-17T11:12:39.756Z,10.10
2022-10-17T11:15:26.990Z,10.55
2022-10-17T11:18:01.861Z,7.63
2022-10-17T11:20:49.818Z,6.57
2022-10-17T11:23:30.038Z,8.82
2022-10-17T11:25:58.694Z,8.93
2022-10-17T11:28:27.909Z,7.90
2022-10-17T11:31:04.528Z,8.40
2022-10-17T11:33:39.604Z,9.10
2022-10-17T11:36:08.986Z,7.85
2022-10-17T11:38:57.317Z,8.75
2022-10-17T11:41:30.650Z,7.60
2022-10-17T11:44:04.374Z,7.03
2022-10-17T11:46:35.972Z,6.95
2022-10-17T11:49:04.383Z,6.70
2022-10-17T11:54:24.950Z,6.20
2022-10-17T11:57:13.957Z,6.38
2022-10-17T11:59:51.182Z,6.22
2022-10-17T12:02:35.040Z,6.32
2022-10-17T12:05:06.993Z,5.82
2022-10-17T12:07:37.252Z,6.25
2022-10-17T12:10:23.383Z,7.38
2022-10-17T12:12:50.677Z,6.30
2022-10-17T12:15:23.874Z,6.72
2022-10-17T12:18:02.548Z,6.88
2022-10-17T12:20:39.596Z,7.25
2022-10-17T12:23:06.748Z,7.80
2022-10-17T12:28:13.262Z,7.53
2022-10-17T12:30:50.605Z,6.85
2022-10-17T12:33:23.841Z,7.75
2022-10-17T12:35:51.541Z,7.75
2022-10-17T12:38:21.598Z,7.57
2022-10-17T12:40:54.381Z,8.38
2022-10-17T12:43:31.394Z,8.38
2022-10-17T12:45:59.207Z,8.65
2022-10-17T12:48:36.925Z,6.05
2022-10-17T12:54:14.855Z,8.50
2022-10-17T12:56:47.645Z,8.10
2022-10-17T12:59:14.709Z,9.20
2022-10-17T13:01:44.411Z,8.50
2022-10-17T13:04:12.032Z,8.15
2022-10-17T13:06:49.838Z,8.27
2022-10-17T13:09:18.020Z,7.93
2022-10-17T13:11:45.306Z,8.27
2022-10-17T13:14:14.730Z,8.15
2022-10-17T13:16:59.104Z,7.53
2022-10-17T13:19:29.677Z,8.27
2022-10-17T13:22:05.337Z,7.88
2022-10-17T13:24:47.035Z,8.00
2022-10-17T13:27:25.423Z,7.80
2022-10-17T13:29:52.685Z,7.47
2022-10-17T13:32:20.061Z,8.40
2022-10-17T13:35:04.982Z,8.25
2022-10-17T13:37:35.154Z,7.20
2022-10-17T13:40:16.238Z,7.25
2022-10-17T13:42:51.707Z,7.85
2022-10-17T13:45:22.769Z,7.03
2022-10-17T13:50:43.171Z,6.68
2022-10-17T13:53:21.334Z,7.13
2022-10-17T13:56:22.824Z,5.72
2022-10-17T13:58:48.345Z,6.00
2022-10-17T14:01:16.386Z,6.15
2022-10-17T14:03:48.554Z,4.32
2022-10-17T14:06:16.279Z,5.40
2022-10-17T14:09:03.485Z,4.82
2022-10-17T14:11:33.673Z,5.28
2022-10-17T14:14:05.328Z,4.65
2022-10-17T14:16:42.258Z,4.20
2022-10-17T14:19:25.673Z,4.80
2022-10-17T14:21:57.458Z,3.22
2022-10-17T14:24:28.289Z,3.58
2022-10-17T14:26:58.880Z,3.63
2022-10-17T14:29:27.662Z,3.65
2022-10-17T14:32:03.659Z,3.63
2022-10-17T14:34:34.142Z,4.30
2022-10-17T14:37:02.121Z,4.35
2022-10-17T14:39:30.057Z,4.10
2022-10-17T14:42:02.012Z,4.20
2022-10-17T14:44:33.597Z,4.57
2022-10-17T14:47:18.317Z,4.53
2022-10-17T14:50:03.966Z,4.60
2022-10-17T14:52:33.579Z,5.05
2022-10-17T14:55:16.215Z,4.75
2022-10-17T14:57:46.882Z,4.82
2022-10-17T15:00:15.139Z,4.18
2022-10-17T15:02:43.700Z,4.85
2022-10-17T15:05:13.408Z,4.88
2022-10-17T15:07:41.459Z,4.20
2022-10-17T15:10:21.740Z,4.28
2022-10-17T15:12:58.898Z,3.28
2022-10-17T15:15:28.051Z,3.40
2022-10-17T15:17:56.482Z,3.80
2022-10-17T15:20:27.202Z,3.65
2022-10-17T15:22:55.869Z,3.75
2022-10-17T15:25:28.727Z,3.70
2022-10-17T15:28:00.186Z,3.78
2022-10-17T15:30:33.075Z,4.07
2022-10-17T15:33:01.539Z,4.35
2022-10-17T15:35:33.783Z,4.05
2022-10-17T15:38:02.174Z,4.43
2022-10-17T15:40:31.358Z,4.40
2022-10-17T15:42:58.504Z,4.60
2022-10-17T15:45:26.941Z,5.25
2022-10-17T15:47:56.655Z,5.53
2022-10-17T15:50:24.939Z,6.50
2022-10-17T15:52:53.070Z,6.32
2022-10-17T15:55:21.339Z,6.82
2022-10-17T15:57:49.601Z,7.78
2022-10-17T16:00:19.733Z,7.63
2022-10-17T16:02:50.724Z,7.80
2022-10-17T16:07:48.388Z,7.32
2022-10-17T16:10:18.623Z,8.00
2022-10-17T16:12:46.825Z,8.40
2022-10-17T16:15:15.421Z,7.80
2022-10-17T16:17:43.869Z,7.75
2022-10-17T16:20:32.162Z,7.85
2022-10-17T16:23:02.481Z,8.25
2022-10-17T16:25:38.538Z,8.25
2022-10-17T16:28:08.452Z,8.23
2022-10-17T16:30:41.449Z,8.73
2022-10-17T16:33:10.678Z,8.07
2022-10-17T16:35:39.939Z,9.27
2022-10-17T16:38:09.329Z,8.63
2022-10-17T16:40:40.307Z,8.27
2022-10-17T16:43:13.452Z,9.07
2022-10-17T16:45:41.649Z,8.68
2022-10-17T16:48:10.238Z,9.18
2022-10-17T16:50:41.583Z,9.23
2022-10-17T16:53:08.921Z,9.18
2022-10-17T16:55:37.289Z,8.95
2022-10-17T16:58:05.364Z,10.57
2022-10-17T17:00:33.096Z,9.93
2022-10-17T17:03:01.713Z,11.48
2022-10-17T17:05:29.278Z,9.80
2022-10-17T17:07:59.588Z,9.38
2022-10-17T17:10:32.825Z,9.95
2022-10-17T17:13:05.768Z,11.20
2022-10-17T17:15:36.447Z,15.77
2022-10-17T17:18:10.910Z,13.77
2022-10-17T17:20:39.503Z,13.75
2022-10-17T17:23:06.871Z,12.68
2022-10-17T17:25:39.538Z,12.75
2022-10-17T17:28:07.718Z,12.27
2022-10-17T17:30:36.398Z,11.73
2022-10-17T17:33:04.966Z,11.93
2022-10-17T17:35:32.527Z,11.45
2022-10-17T17:38:03.170Z,11.48
2022-10-17T17:40:30.718Z,11.43
2022-10-17T17:42:58.226Z,11.20
2022-10-17T17:45:27.777Z,10.90
2022-10-17T17:47:56.080Z,10.70
2022-10-17T17:50:23.713Z,10.30
2022-10-17T17:52:52.196Z,10.70
2022-10-17T17:55:19.871Z,10.93
2022-10-17T17:57:47.215Z,9.82
2022-10-17T18:00:15.218Z,11.45
2022-10-17T18:02:44.573Z,10.38
2022-10-17T18:05:12.130Z,10.50
2022-10-17T18:07:39.482Z,10.05
2022-10-17T18:12:42.998Z,10.38
2022-10-17T18:15:10.361Z,10.43
2022-10-17T18:17:39.358Z,13.70
2022-10-17T18:20:09.252Z,10.75
2022-10-17T18:22:36.929Z,13.52
2022-10-17T18:25:06.212Z,13.13
2022-10-17T18:27:35.935Z,12.88
2022-10-17T18:30:03.527Z,13.30
2022-10-17T18:32:32.279Z,12.98
2022-10-17T18:35:01.155Z,13.75
2022-10-17T18:37:29.663Z,13.48
2022-10-17T18:39:57.721Z,13.38
2022-10-17T18:42:25.067Z,14.95
2022-10-17T18:44:52.423Z,16.10
2022-10-17T18:47:19.971Z,16.00
2022-10-17T18:49:48.461Z,15.90
2022-10-17T18:52:15.820Z,15.68
2022-10-17T18:54:43.162Z,14.98
2022-10-17T18:57:10.815Z,15.20
2022-10-17T18:59:38.305Z,14.43
2022-10-17T19:02:07.589Z,15.80
2022-10-17T19:04:36.286Z,15.07
2022-10-17T19:07:03.711Z,16.35
2022-10-17T19:09:32.004Z,15.93
2022-10-17T19:12:00.462Z,15.82
2022-10-17T19:14:32.937Z,16.02
2022-10-17T19:17:02.028Z,15.80
2022-10-17T19:19:29.617Z,14.85
2022-10-17T19:21:58.904Z,15.95
2022-10-17T19:24:26.981Z,14.60
2022-10-17T19:26:55.454Z,16.17
2022-10-17T19:29:25.758Z,16.65
2022-10-17T19:31:53.439Z,17.27
2022-10-17T19:34:31.946Z,17.83
2022-10-17T19:36:59.414Z,17.13
2022-10-17T19:39:27.564Z,16.10
2022-10-17T19:41:56.253Z,18.35
2022-10-17T19:44:26.191Z,17.52
2022-10-17T19:46:57.237Z,15.52
2022-10-17T19:49:25.843Z,16.42
2022-10-17T19:51:53.352Z,19.05
2022-10-17T19:54:20.795Z,18.55
2022-10-17T19:56:48.664Z,18.20
2022-10-17T19:59:16.904Z,17.08
2022-10-17T20:01:44.752Z,16.80
2022-10-17T20:04:12.772Z,15.93
2022-10-17T20:06:43.603Z,16.38
2022-10-17T20:09:15.720Z,16.92
2022-10-17T20:11:45.166Z,15.95
2022-10-17T20:14:15.593Z,16.70
2022-10-17T20:16:45.717Z,16.05
2022-10-17T20:19:13.804Z,16.02
2022-10-17T20:21:41.458Z,16.83
2022-10-17T20:24:09.952Z,16.48
2022-10-17T20:26:39.594Z,14.63
2022-10-17T20:29:11.335Z,15.30
2022-10-17T20:31:41.831Z,15.98
2022-10-17T20:34:11.035Z,16.00
2022-10-17T20:36:39.485Z,14.85
2022-10-17T20:39:07.353Z,14.80
2022-10-17T20:41:36.872Z,14.88
2022-10-17T20:44:04.826Z,13.80
2022-10-17T20:46:44.795Z,14.57
2022-10-17T20:49:24.117Z,14.95
2022-10-17T20:51:51.571Z,16.77
2022-10-17T20:54:19.333Z,16.83
2022-10-17T20:56:46.645Z,15.98
2022-10-17T20:59:17.495Z,16.92
2022-10-17T21:01:57.310Z,15.02
2022-10-17T21:04:45.253Z,16.52
2022-10-17T21:07:15.774Z,16.33
2022-10-17T21:09:42.996Z,17.17
2022-10-17T21:12:13.195Z,16.80
2022-10-17T21:14:51.306Z,15.65
2022-10-17T21:17:19.549Z,14.75
2022-10-17T21:19:48.981Z,15.90
2022-10-17T21:22:16.143Z,15.57
2022-10-17T21:24:43.963Z,15.57
2022-10-17T21:27:15.210Z,15.57
2022-10-17T21:29:43.479Z,15.88
2022-10-17T21:32:20.626Z,14.70
2022-10-17T21:34:58.530Z,22.98
2022-10-17T21:37:26.657Z,18.35
2022-10-17T21:39:55.941Z,16.25
2022-10-17T21:42:26.353Z,16.77
2022-10-17T21:44:54.579Z,14.93
2022-10-17T21:47:23.287Z,14.68
2022-10-17T21:49:52.743Z,14.48
2022-10-17T21:52:19.808Z,16.08
2022-10-17T21:54:47.184Z,14.57
2022-10-17T21:59:44.605Z,15.48
2022-10-17T22:02:17.698Z,15.57
2022-10-17T22:04:44.985Z,17.67
2022-10-17T22:07:13.010Z,16.58
2022-10-17T22:09:40.112Z,16.50
2022-10-17T22:12:07.272Z,15.52
2022-10-17T22:14:35.494Z,15.10
2022-10-17T22:17:03.824Z,16.50
2022-10-17T22:19:32.183Z,17.92
2022-10-17T22:22:00.331Z,17.40
2022-10-17T22:24:28.695Z,17.20
2022-10-17T22:26:55.787Z,16.65
2022-10-17T22:29:22.883Z,17.02
2022-10-17T22:31:50.093Z,16.67
2022-10-17T22:34:20.507Z,16.75
2022-10-17T22:36:48.849Z,15.23
2022-10-17T22:39:18.103Z,15.20
2022-10-17T22:41:45.524Z,14.60
2022-10-17T22:44:12.625Z,15.52
2022-10-17T22:46:40.030Z,17.10
2022-10-17T22:49:07.181Z,15.93
2022-10-17T22:51:34.536Z,16.05
2022-10-17T22:54:02.784Z,16.67
2022-10-17T22:56:29.939Z,15.23
2022-10-17T22:58:57.219Z,14.13
2022-10-17T23:01:25.297Z,24.75
2022-10-17T23:03:53.247Z,17.23
2022-10-17T23:06:22.005Z,19.05
2022-10-17T23:08:51.334Z,20.08
2022-10-17T23:11:21.044Z,18.55
2022-10-17T23:13:48.184Z,18.17
2022-10-17T23:16:16.621Z,17.27
2022-10-17T23:18:44.218Z,19.48
2022-10-17T23:21:12.798Z,19.48
2022-10-17T23:23:40.089Z,19.92
2022-10-17T23:26:08.631Z,19.20
2022-10-17T23:28:36.114Z,15.80
2022-10-17T23:31:10.860Z,15.07
2022-10-17T23:33:37.987Z,15.13
2022-10-17T23:36:05.604Z,15.25
2022-10-17T23:38:32.690Z,13.93
2022-10-17T23:41:00.056Z,14.70
2022-10-17T23:43:27.545Z,15.20
2022-10-17T23:45:54.685Z,14.15
2022-10-17T23:48:22.852Z,14.73
2022-10-17T23:50:50.120Z,15.00
2022-10-17T23:53:20.442Z,14.57
2022-10-17T23:55:47.828Z,13.95
2022-10-17T23:58:15.453Z,16.77
